Time;durP1;ratioP1;P1;durP2;ratioP2;P2;SDS_P1;SDS_P2;PMS_P1;PMS_P2;Temp;Humidity;BMP_temperature;BMP_pressure;BME280_temperature;BME280_humidity;BME280_pressure;Samples;Min_cycle;Max_cycle;Signal;HPM_P1;HPM_P2
2023/06/07 00:00:09;;;;;;;18.30;9.38;;;17.10;99.90;;;;;;4122338;28;20182;-93
2023/06/07 00:02:14;;;;;;;21.65;8.73;;;17.20;99.90;;;;;;4121526;28;20173;-93
2023/06/07 00:04:18;;;;;;;19.25;8.82;;;17.10;99.90;;;;;;4121272;28;20201;-93
2023/06/07 00:06:19;;;;;;;21.35;9.77;;;16.80;99.90;;;;;;4122505;28;20232;-93
2023/06/07 00:08:20;;;;;;;22.00;9.68;;;16.90;99.90;;;;;;4106551;29;20178;-94
2023/06/07 00:10:24;;;;;;;21.50;9.60;;;16.90;99.90;;;;;;4105097;28;20569;-93
2023/06/07 00:12:25;;;;;;;19.92;9.35;;;17.00;99.90;;;;;;4120524;28;20190;-92
2023/06/07 00:14:26;;;;;;;22.83;10.10;;;17.00;99.90;;;;;;4105436;28;20175;-93
2023/06/07 00:16:44;;;;;;;20.35;9.98;;;16.90;99.90;;;;;;4113769;28;20201;-93
2023/06/07 00:18:48;;;;;;;22.08;9.85;;;16.80;99.90;;;;;;4105607;28;20182;-94
2023/06/07 00:20:53;;;;;;;24.58;10.55;;;16.90;99.90;;;;;;4123238;28;20193;-94
2023/06/07 00:23:04;;;;;;;24.20;10.98;;;16.90;99.90;;;;;;4123506;28;20204;-94
2023/06/07 00:25:07;;;;;;;21.30;10.15;;;17.00;99.90;;;;;;4122162;28;20312;-92
2023/06/07 00:27:09;;;;;;;18.38;9.57;;;16.80;99.90;;;;;;4121791;28;20189;-92
2023/06/07 00:29:16;;;;;;;25.10;10.90;;;16.70;99.90;;;;;;4120004;28;20197;-93
2023/06/07 00:31:17;;;;;;;23.60;10.82;;;16.70;99.90;;;;;;4105466;29;20247;-93
2023/06/07 00:33:23;;;;;;;22.00;9.98;;;16.60;99.90;;;;;;4104096;28;20282;-92
2023/06/07 00:35:31;;;;;;;22.88;10.63;;;16.70;99.90;;;;;;4104591;28;20202;-94
2023/06/07 00:37:40;;;;;;;21.77;10.40;;;16.70;99.90;;;;;;4123768;28;20297;-93
2023/06/07 00:39:43;;;;;;;21.05;10.38;;;16.70;99.90;;;;;;4105315;28;20174;-93
2023/06/07 00:41:46;;;;;;;18.80;10.23;;;16.40;99.90;;;;;;4122609;28;20280;-94
2023/06/07 00:43:48;;;;;;;22.95;11.15;;;16.50;99.90;;;;;;4121964;28;20174;-94
2023/06/07 00:45:56;;;;;;;24.92;10.48;;;16.60;99.90;;;;;;4120644;28;20281;-92
2023/06/07 00:48:01;;;;;;;28.60;10.90;;;16.60;99.90;;;;;;4117928;28;20192;-93
2023/06/07 00:50:07;;;;;;;22.30;11.02;;;16.70;99.90;;;;;;4118496;28;20314;-94
2023/06/07 00:52:10;;;;;;;25.73;10.48;;;16.70;99.90;;;;;;4104027;28;20171;-93
2023/06/07 00:54:17;;;;;;;27.90;11.02;;;16.50;99.90;;;;;;4104855;29;20179;-93
2023/06/07 00:56:24;;;;;;;21.55;10.50;;;16.50;99.90;;;;;;4104245;28;20320;-93
2023/06/07 00:58:29;;;;;;;23.70;11.05;;;16.50;99.90;;;;;;4121313;28;20177;-92
2023/06/07 01:00:35;;;;;;;22.13;10.98;;;16.20;99.90;;;;;;4122156;28;20182;-93
2023/06/07 01:02:36;;;;;;;23.65;11.23;;;16.20;99.90;;;;;;4104073;29;20253;-93
2023/06/07 01:04:42;;;;;;;20.90;10.82;;;16.40;99.90;;;;;;4122920;28;20221;-93
2023/06/07 01:06:43;;;;;;;19.27;9.88;;;16.30;99.90;;;;;;4124759;28;20195;-92
2023/06/07 01:08:48;;;;;;;28.15;10.77;;;16.30;99.90;;;;;;4121437;28;20226;-93
2023/06/07 01:10:52;;;;;;;26.33;10.65;;;16.50;99.90;;;;;;4123353;28;20181;-93
2023/06/07 01:12:54;;;;;;;22.67;11.75;;;16.50;99.90;;;;;;4108186;29;20175;-93
2023/06/07 01:15:00;;;;;;;26.63;12.10;;;16.40;99.90;;;;;;4106475;28;20712;-92
2023/06/07 01:17:06;;;;;;;23.40;10.75;;;16.30;99.90;;;;;;4125106;28;20210;-94
2023/06/07 01:19:18;;;;;;;23.70;10.85;;;16.20;99.90;;;;;;4120721;28;20154;-93
2023/06/07 01:21:33;;;;;;;23.58;11.07;;;16.00;99.90;;;;;;4108405;28;20159;-94
2023/06/07 01:23:41;;;;;;;22.85;10.57;;;15.80;99.90;;;;;;4125319;28;20182;-92
2023/06/07 01:25:43;;;;;;;25.35;11.43;;;15.90;99.90;;;;;;4106159;28;20222;-94
2023/06/07 01:27:45;;;;;;;23.58;10.93;;;16.00;99.90;;;;;;4123816;28;20631;-93
2023/06/07 01:29:50;;;;;;;19.85;11.30;;;16.10;99.90;;;;;;4104592;28;20190;-92
2023/06/07 01:31:53;;;;;;;24.88;12.18;;;16.10;99.90;;;;;;4106161;29;20166;-93
2023/06/07 01:33:58;;;;;;;24.92;12.07;;;16.10;99.90;;;;;;4122837;28;20253;-94
2023/06/07 01:36:01;;;;;;;21.35;10.90;;;16.00;99.90;;;;;;4106688;28;20664;-93
2023/06/07 01:38:09;;;;;;;23.23;11.57;;;15.80;99.90;;;;;;4106251;28;20234;-93
2023/06/07 01:40:16;;;;;;;27.17;11.95;;;15.80;99.90;;;;;;4123294;28;20205;-93
2023/06/07 01:42:20;;;;;;;23.20;11.52;;;15.80;99.90;;;;;;4125282;28;20185;-94
2023/06/07 01:44:25;;;;;;;27.60;11.63;;;15.80;99.90;;;;;;4109553;28;20207;-94
2023/06/07 01:46:28;;;;;;;20.90;10.90;;;15.80;99.90;;;;;;4106848;28;20216;-92
2023/06/07 01:48:32;;;;;;;30.92;12.40;;;15.80;99.90;;;;;;4121930;28;20186;-92
2023/06/07 01:50:36;;;;;;;27.80;12.90;;;15.70;99.90;;;;;;4106629;28;20175;-93
2023/06/07 01:52:37;;;;;;;30.27;12.90;;;15.70;99.90;;;;;;4107140;29;20182;-93
2023/06/07 01:55:00;;;;;;;28.42;12.55;;;15.60;99.90;;;;;;4124345;28;20671;-94
2023/06/07 01:57:58;;;;;;;19.70;11.05;;;15.70;99.90;;;;;;4108969;28;20179;-92
2023/06/07 02:00:35;;;;;;;21.15;11.65;;;15.60;99.90;;;;;;4108784;28;20185;-96
2023/06/07 02:02:50;;;;;;;30.38;12.70;;;15.50;99.90;;;;;;4121853;28;20182;-92
2023/06/07 02:04:57;;;;;;;26.58;12.88;;;15.50;99.90;;;;;;4107552;28;20226;-93
2023/06/07 02:07:23;;;;;;;25.60;12.38;;;15.50;99.90;;;;;;4108509;28;20214;-94
2023/06/07 02:09:30;;;;;;;23.40;12.68;;;15.50;99.90;;;;;;4122018;28;20567;-93
2023/06/07 02:11:39;;;;;;;22.05;12.73;;;15.30;99.90;;;;;;4122433;28;20178;-96
2023/06/07 02:13:43;;;;;;;26.65;12.25;;;15.20;99.90;;;;;;4109355;28;20178;-93
2023/06/07 02:15:46;;;;;;;23.60;11.95;;;15.20;99.90;;;;;;4122800;28;20190;-93
2023/06/07 02:18:00;;;;;;;25.48;11.82;;;15.30;99.90;;;;;;4122960;28;20178;-93
2023/06/07 02:20:13;;;;;;;27.13;12.30;;;15.40;99.90;;;;;;4106324;28;20186;-93
2023/06/07 02:22:16;;;;;;;30.50;12.50;;;15.50;99.90;;;;;;4109161;28;20290;-93
2023/06/07 02:24:19;;;;;;;32.78;13.52;;;15.20;99.90;;;;;;4124372;28;20210;-93
2023/06/07 02:26:23;;;;;;;26.67;12.38;;;15.30;99.90;;;;;;4123479;28;20229;-93
2023/06/07 02:28:27;;;;;;;26.95;12.20;;;15.40;99.90;;;;;;4106549;29;20163;-94
2023/06/07 02:30:32;;;;;;;28.98;13.23;;;15.30;99.90;;;;;;4125623;28;20171;-92
2023/06/07 02:32:38;;;;;;;23.13;11.70;;;15.10;99.90;;;;;;4106518;29;20325;-94
2023/06/07 02:34:39;;;;;;;29.95;12.73;;;15.10;99.90;;;;;;4121004;28;20222;-91
2023/06/07 02:36:43;;;;;;;24.30;12.40;;;15.20;99.90;;;;;;4115105;28;20207;-93
2023/06/07 02:38:51;;;;;;;28.13;13.25;;;15.20;99.90;;;;;;4106805;28;20276;-94
2023/06/07 02:40:55;;;;;;;28.55;13.43;;;15.10;99.90;;;;;;4108193;29;20230;-93
2023/06/07 02:43:10;;;;;;;24.83;12.63;;;15.10;99.90;;;;;;4106492;28;20186;-94
2023/06/07 02:45:14;;;;;;;27.75;12.77;;;14.90;99.90;;;;;;4122438;28;20237;-92
2023/06/07 02:47:14;;;;;;;27.95;13.20;;;14.90;99.90;;;;;;4107566;28;20190;-93
2023/06/07 02:49:16;;;;;;;25.10;12.50;;;14.90;99.90;;;;;;4107017;29;20680;-94
2023/06/07 02:51:37;;;;;;;26.77;13.05;;;14.80;99.90;;;;;;4104946;28;20175;-93
2023/06/07 02:53:44;;;;;;;26.60;13.90;;;14.70;99.90;;;;;;4121776;28;20516;-94
2023/06/07 02:55:46;;;;;;;26.17;13.02;;;14.70;99.90;;;;;;4104978;28;20185;-94
2023/06/07 02:57:48;;;;;;;29.50;13.30;;;14.80;99.90;;;;;;4105230;29;20187;-92
2023/06/07 02:59:56;;;;;;;24.70;13.35;;;14.70;99.90;;;;;;4124648;28;20197;-94
2023/06/07 03:02:04;;;;;;;27.75;12.57;;;14.70;99.90;;;;;;4108181;28;20614;-94
2023/06/07 03:04:08;;;;;;;24.67;13.07;;;14.60;99.90;;;;;;4122085;28;20183;-94
2023/06/07 03:06:20;;;;;;;27.27;12.85;;;14.60;99.90;;;;;;4106063;28;20186;-96
2023/06/07 03:08:24;;;;;;;31.88;13.75;;;14.60;99.90;;;;;;4105860;28;20155;-94
2023/06/07 03:10:28;;;;;;;23.48;13.05;;;14.70;99.90;;;;;;4107317;29;20239;-94
2023/06/07 03:12:37;;;;;;;30.60;13.00;;;14.60;99.90;;;;;;4121282;28;20726;-92
2023/06/07 03:14:41;;;;;;;25.58;12.30;;;14.60;99.90;;;;;;4125451;28;20198;-93
2023/06/07 03:16:47;;;;;;;31.95;14.25;;;14.60;99.90;;;;;;4107922;28;20205;-96
2023/06/07 03:18:52;;;;;;;25.17;13.40;;;14.60;99.90;;;;;;4108436;28;20179;-93
2023/06/07 03:21:13;;;;;;;27.65;13.20;;;14.60;99.90;;;;;;4123928;28;20178;-93
2023/06/07 03:23:19;;;;;;;30.83;14.10;;;14.70;99.90;;;;;;4108574;28;20183;-95
2023/06/07 03:25:27;;;;;;;24.88;12.98;;;14.80;99.90;;;;;;4124238;28;20678;-96
2023/06/07 03:27:32;;;;;;;23.98;12.95;;;14.80;99.90;;;;;;4122946;28;20269;-92
2023/06/07 03:29:37;;;;;;;32.85;13.52;;;14.70;99.90;;;;;;4108654;28;20158;-93
2023/06/07 03:31:44;;;;;;;30.40;13.85;;;14.70;99.90;;;;;;4123209;28;20221;-94
2023/06/07 03:33:50;;;;;;;31.75;13.13;;;14.60;99.90;;;;;;4103119;28;20178;-93
2023/06/07 03:35:52;;;;;;;27.17;13.43;;;14.60;99.90;;;;;;4101580;28;20167;-93
2023/06/07 03:38:01;;;;;;;29.25;13.60;;;14.50;99.90;;;;;;4118002;28;20205;-93
2023/06/07 03:40:05;;;;;;;32.13;14.27;;;14.70;99.90;;;;;;4103069;29;20171;-92
2023/06/07 03:42:06;;;;;;;21.77;12.65;;;14.60;99.90;;;;;;4108781;28;20159;-93
2023/06/07 03:44:08;;;;;;;23.95;12.43;;;14.60;99.90;;;;;;4104652;28;20202;-93
2023/06/07 03:46:13;;;;;;;33.92;13.65;;;14.60;99.90;;;;;;4107263;28;20182;-93
2023/06/07 03:48:24;;;;;;;33.75;14.68;;;14.70;99.90;;;;;;4124245;28;20190;-91
2023/06/07 03:50:25;;;;;;;32.38;13.18;;;14.60;99.90;;;;;;4104654;29;20174;-92
2023/06/07 03:52:28;;;;;;;23.67;13.23;;;14.70;99.90;;;;;;4120209;28;20618;-93
2023/06/07 03:54:38;;;;;;;26.63;13.95;;;14.70;99.90;;;;;;4122836;28;20274;-92
2023/06/07 03:56:43;;;;;;;25.30;11.98;;;14.70;99.90;;;;;;4104906;28;20209;-93
2023/06/07 03:58:48;;;;;;;25.55;13.57;;;14.60;99.90;;;;;;4105081;28;20284;-93
2023/06/07 04:00:55;;;;;;;30.52;13.70;;;14.60;99.90;;;;;;4105525;28;20270;-93
2023/06/07 04:03:05;;;;;;;28.13;12.75;;;14.60;99.90;;;;;;4131069;28;20200;-94
2023/06/07 04:05:07;;;;;;;29.23;12.60;;;14.70;99.90;;;;;;4121165;28;20294;-94
2023/06/07 04:07:08;;;;;;;26.70;12.98;;;14.60;99.90;;;;;;4122449;28;20186;-94
2023/06/07 04:09:15;;;;;;;20.85;12.25;;;14.60;99.90;;;;;;4107385;28;20175;-93
2023/06/07 04:11:20;;;;;;;30.90;13.63;;;14.70;99.90;;;;;;4123088;28;20178;-94
2023/06/07 04:13:21;;;;;;;30.65;13.63;;;14.90;99.90;;;;;;4107588;29;20194;-94
2023/06/07 04:15:27;;;;;;;38.35;13.30;;;14.70;99.90;;;;;;4120765;28;20201;-93
2023/06/07 04:17:29;;;;;;;30.63;13.38;;;14.80;99.90;;;;;;4106248;28;20206;-93
2023/06/07 04:19:32;;;;;;;20.73;13.10;;;14.80;99.90;;;;;;4106345;28;20182;-94
2023/06/07 04:21:54;;;;;;;26.83;12.73;;;14.70;99.90;;;;;;4106488;28;20179;-92
2023/06/07 04:23:57;;;;;;;30.38;12.30;;;14.70;99.90;;;;;;4107765;28;20189;-93
2023/06/07 04:26:06;;;;;;;22.17;11.88;;;14.70;99.90;;;;;;4124530;28;20186;-93
2023/06/07 04:28:23;;;;;;;24.30;12.10;;;14.70;99.90;;;;;;4118719;28;20659;-94
2023/06/07 04:30:36;;;;;;;23.63;12.65;;;14.80;99.90;;;;;;4108111;28;20193;-92
2023/06/07 04:32:47;;;;;;;26.15;13.15;;;14.80;99.90;;;;;;4122873;28;20185;-92
2023/06/07 04:34:51;;;;;;;32.90;12.75;;;14.90;99.90;;;;;;4108228;29;20287;-93
2023/06/07 04:37:03;;;;;;;24.90;12.20;;;14.90;99.90;;;;;;4123253;28;20179;-93
2023/06/07 04:39:09;;;;;;;30.27;11.57;;;14.70;99.90;;;;;;4110186;28;20178;-94
2023/06/07 04:41:35;;;;;;;26.35;12.25;;;14.60;99.90;;;;;;4127680;28;20589;-92
2023/06/07 04:43:40;;;;;;;28.75;12.48;;;14.50;99.90;;;;;;4109902;28;20729;-93
2023/06/07 04:45:55;;;;;;;27.15;12.15;;;14.50;99.90;;;;;;4109997;28;20225;-93
2023/06/07 04:47:58;;;;;;;27.45;12.32;;;14.60;99.90;;;;;;4124820;28;20205;-93
2023/06/07 04:50:08;;;;;;;35.72;12.63;;;14.70;99.90;;;;;;4125785;28;20166;-95
2023/06/07 04:52:19;;;;;;;33.58;12.65;;;14.80;99.90;;;;;;4109306;28;20194;-93
2023/06/07 04:54:28;;;;;;;25.70;12.02;;;14.80;99.90;;;;;;4124051;28;20174;-92
2023/06/07 04:56:41;;;;;;;20.30;11.38;;;14.90;99.90;;;;;;4128504;28;20238;-92
2023/06/07 04:58:45;;;;;;;29.00;12.23;;;14.90;99.90;;;;;;4126184;28;20192;-93
2023/06/07 05:00:57;;;;;;;26.33;11.50;;;14.80;99.90;;;;;;4129364;28;20177;-95
2023/06/07 05:03:08;;;;;;;27.05;12.70;;;14.70;99.90;;;;;;4110688;28;20654;-94
2023/06/07 05:05:32;;;;;;;25.13;12.32;;;14.60;99.90;;;;;;4113821;28;20226;-91
2023/06/07 05:07:36;;;;;;;27.00;12.65;;;14.60;99.90;;;;;;4115112;28;20175;-91
2023/06/07 05:09:49;;;;;;;27.63;11.85;;;14.60;99.90;;;;;;4130366;28;20190;-92
2023/06/07 05:11:53;;;;;;;22.70;11.90;;;14.50;99.90;;;;;;4117504;28;20158;-91
2023/06/07 05:13:55;;;;;;;19.48;11.45;;;14.50;99.90;;;;;;4121754;28;20179;-91
2023/06/07 05:15:56;;;;;;;34.17;13.65;;;14.60;99.90;;;;;;4121244;28;20148;-92
2023/06/07 05:17:58;;;;;;;26.45;11.77;;;14.60;99.90;;;;;;4132111;28;20229;-92
2023/06/07 05:20:35;;;;;;;26.50;12.27;;;14.60;99.90;;;;;;4133898;28;20162;-91
2023/06/07 05:22:56;;;;;;;22.90;12.25;;;14.50;99.90;;;;;;4130918;28;20193;-91
2023/06/07 05:25:02;;;;;;;26.23;12.55;;;14.50;99.90;;;;;;4128306;28;20671;-92
2023/06/07 05:27:15;;;;;;;24.60;11.77;;;14.40;99.90;;;;;;4128280;28;20218;-92
2023/06/07 05:29:28;;;;;;;19.75;12.35;;;14.40;99.90;;;;;;4111151;28;20190;-92
2023/06/07 05:31:34;;;;;;;23.75;12.75;;;14.50;99.90;;;;;;4111299;28;20189;-92
2023/06/07 05:33:54;;;;;;;27.15;12.20;;;14.50;99.90;;;;;;4138520;28;20158;-93
2023/06/07 05:36:36;;;;;;;23.27;12.70;;;14.70;99.90;;;;;;4138486;28;20218;-91
2023/06/07 05:39:01;;;;;;;22.70;11.75;;;14.70;99.90;;;;;;4137876;28;21158;-93
2023/06/07 05:41:08;;;;;;;23.05;12.88;;;14.80;99.90;;;;;;4138032;28;20158;-92
2023/06/07 05:43:58;;;;;;;27.73;12.10;;;14.80;99.90;;;;;;4126287;28;20178;-94
2023/06/07 05:46:57;;;;;;;20.20;12.07;;;14.90;99.90;;;;;;4213721;23;20170;-92
2023/06/07 05:49:02;;;;;;;20.48;11.48;;;14.90;99.90;;;;;;4120523;28;20202;-91
2023/06/07 05:51:51;;;;;;;18.35;11.50;;;15.00;99.90;;;;;;4104454;28;20160;-94
2023/06/07 05:54:00;;;;;;;25.13;11.65;;;15.00;99.90;;;;;;4079871;28;20203;-92
2023/06/07 05:56:36;;;;;;;24.75;12.27;;;15.10;99.90;;;;;;4105417;28;20195;-94
2023/06/07 05:59:28;;;;;;;25.33;11.93;;;15.10;99.90;;;;;;4120264;28;20171;-91
2023/06/07 06:02:31;;;;;;;24.98;11.60;;;15.10;99.90;;;;;;4123012;28;20198;-93
2023/06/07 06:05:33;;;;;;;26.77;11.27;;;15.30;99.90;;;;;;4121388;28;20214;-93
2023/06/07 06:08:21;;;;;;;29.65;12.63;;;15.40;99.90;;;;;;4120227;28;20238;-95
2023/06/07 06:10:59;;;;;;;23.58;11.98;;;15.40;99.90;;;;;;4122429;28;20171;-93
2023/06/07 06:13:15;;;;;;;21.42;12.02;;;15.50;99.90;;;;;;4122183;28;20183;-93
2023/06/07 06:15:27;;;;;;;30.33;12.48;;;15.70;99.90;;;;;;4105009;28;20166;-92
2023/06/07 06:17:54;;;;;;;30.85;11.73;;;15.80;99.90;;;;;;4122544;28;20178;-93
2023/06/07 06:20:27;;;;;;;19.65;10.60;;;16.10;99.90;;;;;;4121432;28;20182;-93
2023/06/07 06:22:32;;;;;;;22.65;11.48;;;16.40;99.90;;;;;;4107654;28;20218;-94
2023/06/07 06:25:29;;;;;;;24.05;11.73;;;16.60;99.90;;;;;;4120991;28;20258;-94
2023/06/07 06:31:14;;;;;;;20.20;11.43;;;16.50;99.90;;;;;;4121236;28;20171;-92
2023/06/07 06:33:18;;;;;;;31.92;10.88;;;16.50;99.90;;;;;;4105576;28;20179;-95
2023/06/07 06:35:57;;;;;;;24.33;10.93;;;16.80;99.90;;;;;;4121010;28;20186;-92
2023/06/07 06:38:23;;;;;;;22.40;11.27;;;17.00;99.90;;;;;;4134049;23;20225;-93
2023/06/07 06:40:24;;;;;;;23.58;11.32;;;17.00;99.90;;;;;;4102090;28;20175;-93
2023/06/07 06:42:25;;;;;;;26.42;11.52;;;17.00;99.90;;;;;;4117461;28;20178;-92
2023/06/07 06:44:45;;;;;;;19.58;11.25;;;17.10;99.90;;;;;;4104650;28;20198;-92
2023/06/07 06:46:46;;;;;;;23.15;11.15;;;17.00;99.90;;;;;;4101774;28;20659;-95
2023/06/07 06:48:46;;;;;;;22.17;11.07;;;17.10;99.90;;;;;;4101160;29;20215;-92
2023/06/07 06:50:49;;;;;;;29.40;12.02;;;17.20;99.90;;;;;;4101602;28;20175;-93
2023/06/07 06:52:50;;;;;;;23.60;11.07;;;17.30;99.90;;;;;;4085172;29;20167;-92
2023/06/07 06:54:51;;;;;;;20.88;11.13;;;17.30;99.90;;;;;;4101542;29;20559;-95
2023/06/07 06:56:51;;;;;;;22.55;11.05;;;17.50;99.90;;;;;;4085095;29;20195;-94
2023/06/07 06:58:52;;;;;;;19.95;11.23;;;17.40;99.90;;;;;;4101657;28;20615;-92
2023/06/07 07:00:53;;;;;;;24.02;11.43;;;17.00;99.90;;;;;;4085540;29;20690;-93
2023/06/07 07:02:54;;;;;;;25.90;11.85;;;16.90;99.90;;;;;;4084637;29;20183;-92
2023/06/07 07:04:55;;;;;;;27.23;12.10;;;16.90;99.90;;;;;;4100800;29;20211;-94
2023/06/07 07:06:56;;;;;;;26.80;12.57;;;17.00;99.90;;;;;;4085722;29;20251;-96
2023/06/07 07:08:57;;;;;;;23.90;11.43;;;17.10;99.90;;;;;;4085714;29;20176;-92
2023/06/07 07:10:59;;;;;;;21.08;11.23;;;17.20;99.90;;;;;;4085438;29;20168;-95
2023/06/07 07:13:00;;;;;;;18.42;11.55;;;17.20;99.90;;;;;;4101291;28;20236;-94
2023/06/07 07:15:01;;;;;;;31.73;10.77;;;17.30;99.90;;;;;;4085272;29;20191;-93
2023/06/07 07:17:02;;;;;;;20.00;10.93;;;17.70;99.90;;;;;;4085160;29;20198;-93
2023/06/07 07:19:02;;;;;;;19.13;10.75;;;18.10;99.90;;;;;;4084745;29;20263;-93
2023/06/07 07:21:03;;;;;;;21.05;10.38;;;18.20;99.90;;;;;;4085591;29;20739;-93
2023/06/07 07:23:04;;;;;;;18.63;10.73;;;18.20;99.90;;;;;;4084922;29;20176;-96
2023/06/07 07:25:09;;;;;;;22.25;10.95;;;18.20;99.90;;;;;;4084712;29;20264;-94
2023/06/07 07:27:10;;;;;;;19.60;10.43;;;18.10;99.90;;;;;;4117422;28;20249;-93
2023/06/07 07:29:13;;;;;;;21.27;11.00;;;17.90;99.90;;;;;;4101254;28;20234;-95
2023/06/07 07:31:14;;;;;;;21.67;10.93;;;18.10;99.90;;;;;;4117203;28;20647;-93
2023/06/07 07:33:15;;;;;;;23.27;11.27;;;18.40;99.90;;;;;;4100914;28;20171;-93
2023/06/07 07:35:16;;;;;;;23.92;10.98;;;18.70;99.90;;;;;;4086373;29;20218;-93
2023/06/07 07:37:17;;;;;;;16.92;10.55;;;19.10;99.90;;;;;;4102386;29;20198;-96
2023/06/07 07:39:18;;;;;;;23.13;11.55;;;19.30;99.90;;;;;;4085411;28;20194;-93
2023/06/07 07:41:19;;;;;;;22.75;11.57;;;19.00;99.90;;;;;;4100244;28;20345;-93
2023/06/07 07:43:19;;;;;;;22.83;11.23;;;18.60;99.90;;;;;;4084403;29;20211;-95
2023/06/07 07:45:20;;;;;;;27.80;12.73;;;18.30;99.90;;;;;;4100407;28;20211;-94
2023/06/07 07:47:21;;;;;;;24.02;12.27;;;18.10;99.90;;;;;;4086564;29;20203;-95
2023/06/07 07:49:22;;;;;;;22.80;11.85;;;18.00;99.90;;;;;;4100791;29;20636;-95
2023/06/07 07:51:23;;;;;;;27.40;11.88;;;17.90;99.90;;;;;;4068967;29;20203;-93
2023/06/07 07:53:23;;;;;;;26.52;12.38;;;17.90;99.90;;;;;;4100468;28;20269;-92
2023/06/07 07:55:24;;;;;;;25.42;12.25;;;17.80;99.90;;;;;;4085022;29;20499;-93
2023/06/07 07:57:25;;;;;;;25.98;12.60;;;17.80;99.90;;;;;;4085244;29;20236;-94
2023/06/07 07:59:26;;;;;;;28.75;12.30;;;17.80;99.90;;;;;;4100454;28;20178;-94
2023/06/07 08:01:27;;;;;;;24.58;12.68;;;18.00;99.90;;;;;;4100633;29;20167;-92
2023/06/07 08:03:29;;;;;;;25.45;12.20;;;18.00;99.90;;;;;;4085064;29;20636;-92
2023/06/07 08:05:29;;;;;;;25.42;11.93;;;17.70;99.90;;;;;;4100258;28;20210;-93
2023/06/07 08:07:31;;;;;;;22.02;12.57;;;17.70;99.90;;;;;;4100471;28;20193;-93
2023/06/07 08:09:32;;;;;;;28.05;13.27;;;17.90;99.90;;;;;;4084364;29;20180;-93
2023/06/07 08:11:32;;;;;;;30.02;12.27;;;18.20;99.90;;;;;;4100283;28;20258;-93
2023/06/07 08:13:33;;;;;;;26.65;11.40;;;18.90;99.90;;;;;;4100403;28;20171;-94
2023/06/07 08:15:34;;;;;;;26.48;12.55;;;19.20;99.90;;;;;;4085387;28;20187;-92
2023/06/07 08:17:35;;;;;;;23.73;11.75;;;19.40;99.90;;;;;;4084847;29;20706;-95
2023/06/07 08:19:36;;;;;;;20.98;11.63;;;20.20;99.90;;;;;;4100484;29;20206;-95
2023/06/07 08:21:37;;;;;;;24.52;10.70;;;20.80;99.90;;;;;;4084711;29;20653;-93
2023/06/07 08:23:38;;;;;;;22.27;11.57;;;21.30;99.90;;;;;;4100220;28;20174;-91
2023/06/07 08:25:39;;;;;;;26.35;11.07;;;21.70;99.90;;;;;;4084265;29;20222;-93
2023/06/07 08:27:40;;;;;;;18.38;10.77;;;22.10;99.90;;;;;;4100354;29;20539;-94
2023/06/07 08:29:41;;;;;;;21.02;11.40;;;22.70;99.90;;;;;;4084458;29;20270;-94
2023/06/07 08:31:43;;;;;;;26.40;11.40;;;22.70;99.90;;;;;;4100465;28;20595;-92
2023/06/07 08:33:44;;;;;;;19.77;11.75;;;22.60;99.90;;;;;;4099943;29;20234;-92
2023/06/07 08:35:45;;;;;;;20.45;10.90;;;22.50;99.90;;;;;;4084199;28;20652;-93
2023/06/07 08:37:45;;;;;;;20.90;11.00;;;22.80;99.90;;;;;;4100122;28;20174;-96
2023/06/07 08:39:47;;;;;;;22.83;10.82;;;23.00;99.90;;;;;;4084770;28;20183;-92
2023/06/07 08:41:47;;;;;;;20.90;11.88;;;22.20;99.90;;;;;;4099942;29;20179;-96
2023/06/07 08:43:49;;;;;;;24.52;11.80;;;21.80;99.90;;;;;;4085283;28;20716;-93
2023/06/07 08:45:50;;;;;;;18.45;11.82;;;21.30;99.90;;;;;;4099598;29;20719;-94
2023/06/07 08:47:56;;;;;;;23.58;11.73;;;20.90;99.90;;;;;;4115823;28;20175;-92
2023/06/07 08:49:57;;;;;;;21.60;12.40;;;20.70;99.90;;;;;;4115996;28;20174;-96
2023/06/07 08:52:00;;;;;;;31.17;12.63;;;20.70;99.90;;;;;;4116473;28;20726;-92
2023/06/07 08:54:02;;;;;;;23.80;12.18;;;20.60;99.90;;;;;;4117816;28;20670;-93
2023/06/07 08:56:04;;;;;;;24.45;12.20;;;20.60;99.90;;;;;;4116232;28;20229;-93
2023/06/07 08:58:09;;;;;;;23.08;12.10;;;20.60;99.90;;;;;;4116003;28;20182;-92
2023/06/07 09:00:11;;;;;;;27.77;12.30;;;20.70;99.90;;;;;;4115869;28;20646;-95
2023/06/07 09:02:13;;;;;;;19.90;12.30;;;20.60;99.90;;;;;;4115982;28;20178;-93
2023/06/07 09:04:16;;;;;;;29.70;13.35;;;20.50;99.90;;;;;;4115619;28;20273;-93
2023/06/07 09:06:17;;;;;;;29.55;13.30;;;20.50;99.90;;;;;;4115853;28;20210;-95
2023/06/07 09:08:18;;;;;;;28.08;12.45;;;20.60;99.90;;;;;;4116013;28;20648;-94
2023/06/07 09:10:19;;;;;;;23.75;12.95;;;20.70;99.90;;;;;;4084584;29;20231;-92
2023/06/07 09:12:20;;;;;;;27.73;12.20;;;20.60;99.90;;;;;;4085403;29;20251;-92
2023/06/07 09:14:22;;;;;;;30.85;12.88;;;20.60;99.90;;;;;;4084240;29;20183;-93
2023/06/07 09:16:23;;;;;;;22.27;12.05;;;20.70;99.90;;;;;;4115457;28;20550;-92
2023/06/07 09:18:39;;;;;;;26.33;13.25;;;20.80;99.90;;;;;;4100141;28;20265;-96
2023/06/07 09:20:40;;;;;;;24.25;12.05;;;21.10;99.90;;;;;;4084192;28;20629;-93
2023/06/07 09:22:41;;;;;;;22.98;10.70;;;21.60;99.90;;;;;;4100717;29;20175;-93
2023/06/07 09:24:42;;;;;;;22.27;11.68;;;22.40;99.90;;;;;;4100576;28;20691;-94
2023/06/07 09:26:43;;;;;;;19.48;11.35;;;23.10;99.90;;;;;;4086756;29;20727;-94
2023/06/07 09:28:46;;;;;;;25.25;12.27;;;23.50;99.90;;;;;;4118798;28;20221;-92
2023/06/07 09:30:55;;;;;;;19.48;11.40;;;23.70;99.90;;;;;;4102825;28;20178;-94
2023/06/07 09:32:58;;;;;;;22.00;11.18;;;23.90;99.90;;;;;;4103666;28;20624;-93
2023/06/07 09:35:13;;;;;;;22.60;11.90;;;24.30;99.90;;;;;;4118672;28;20177;-94
2023/06/07 09:37:16;;;;;;;22.40;11.52;;;24.30;99.90;;;;;;4119228;28;20201;-93
2023/06/07 09:39:22;;;;;;;19.35;10.93;;;24.80;99.90;;;;;;4087223;29;20274;-94
2023/06/07 09:41:31;;;;;;;15.68;11.23;;;24.90;99.90;;;;;;4102402;28;20629;-93
2023/06/07 09:43:50;;;;;;;21.17;11.50;;;24.60;99.90;;;;;;4102871;28;20237;-94
2023/06/07 09:45:56;;;;;;;21.10;11.75;;;24.20;99.90;;;;;;4102535;28;20207;-92
2023/06/07 09:48:02;;;;;;;22.38;12.15;;;24.60;99.90;;;;;;4102178;28;20563;-93
2023/06/07 09:50:08;;;;;;;21.83;11.23;;;24.50;99.90;;;;;;4102226;28;20171;-92
2023/06/07 09:52:15;;;;;;;19.98;11.63;;;24.20;99.90;;;;;;4102021;28;20187;-94
2023/06/07 09:54:17;;;;;;;17.27;11.05;;;23.90;99.90;;;;;;4102531;28;20534;-93
2023/06/07 09:56:19;;;;;;;19.90;12.05;;;23.80;99.90;;;;;;4102447;29;20202;-94
2023/06/07 09:58:23;;;;;;;22.35;11.65;;;23.70;99.90;;;;;;4086387;29;20171;-94
2023/06/07 10:00:27;;;;;;;23.17;12.15;;;23.60;99.90;;;;;;4087763;29;20605;-93
2023/06/07 10:02:29;;;;;;;21.02;11.75;;;23.40;99.90;;;;;;4102780;28;20230;-96
2023/06/07 10:04:31;;;;;;;21.88;11.98;;;23.50;99.90;;;;;;4102519;28;20203;-93
2023/06/07 10:06:37;;;;;;;23.65;12.25;;;23.60;99.90;;;;;;4102475;29;20191;-96
2023/06/07 10:08:39;;;;;;;26.98;12.52;;;23.50;99.90;;;;;;4087915;29;20175;-94
2023/06/07 10:10:43;;;;;;;23.88;12.90;;;23.70;99.90;;;;;;4086362;29;20171;-96
2023/06/07 10:12:46;;;;;;;21.48;11.73;;;23.60;99.90;;;;;;4102928;29;20175;-92
2023/06/07 10:14:47;;;;;;;21.00;12.88;;;23.50;99.90;;;;;;4118343;28;20234;-93
2023/06/07 10:17:00;;;;;;;24.75;11.95;;;23.40;99.90;;;;;;4119149;28;20198;-95
2023/06/07 10:19:12;;;;;;;23.83;12.30;;;23.30;99.90;;;;;;4118024;28;20178;-92
2023/06/07 10:21:18;;;;;;;27.20;11.52;;;23.10;99.90;;;;;;4120069;28;20178;-94
2023/06/07 10:23:28;;;;;;;28.83;12.90;;;23.10;99.90;;;;;;4117899;28;20214;-93
2023/06/07 10:25:34;;;;;;;24.33;12.77;;;23.10;99.90;;;;;;4117910;28;20257;-93
2023/06/07 10:28:10;;;;;;;23.05;11.77;;;23.10;99.90;;;;;;4118244;28;20224;-93
2023/06/07 10:30:14;;;;;;;24.92;12.35;;;23.30;99.90;;;;;;4086342;29;20203;-93
2023/06/07 10:32:24;;;;;;;22.52;12.90;;;23.30;99.90;;;;;;4085748;29;20175;-92
2023/06/07 10:34:28;;;;;;;21.42;11.50;;;23.00;99.90;;;;;;4101850;28;20175;-93
2023/06/07 10:36:29;;;;;;;23.90;12.90;;;22.80;99.90;;;;;;4101747;28;20191;-93
2023/06/07 10:38:31;;;;;;;20.23;11.25;;;22.90;99.90;;;;;;4117631;28;20185;-95
2023/06/07 10:40:32;;;;;;;24.10;12.35;;;22.90;99.90;;;;;;4087256;29;20625;-93
2023/06/07 10:42:33;;;;;;;27.20;12.07;;;23.10;99.90;;;;;;4085792;29;20182;-96
2023/06/07 10:44:36;;;;;;;29.88;13.23;;;23.30;99.90;;;;;;4085756;29;20695;-93
2023/06/07 10:46:38;;;;;;;25.40;12.02;;;23.30;99.90;;;;;;4101309;28;20203;-93
2023/06/07 10:48:40;;;;;;;33.80;12.65;;;23.10;99.90;;;;;;4118154;28;20190;-92
2023/06/07 10:50:47;;;;;;;23.75;12.27;;;23.20;99.90;;;;;;4086024;29;20188;-92